EDDF 191520Z 22007KT 9999 FEW034 05/M02 Q1010 TEMPO SHRA=
EDDH 191520Z 22007KT 190V250 7000 -RASN BKN007 02/01 Q1005 R88/610195 BECMG BKN010=
EDDT 191520Z 25007KT 9999 SCT022 BKN049 03/01 Q1007 TEMPO BKN012=
EETN 191520Z 10005KT 4700 BR OVC005 M02/M02 Q1006 R08/820295 NOSIG=
EFHK 191520Z 03003KT 8000 FEW008 SCT018 BKN070 M04/M04 Q1006 TEMPO 6000 BKN010=
EPWA 191500Z 28011KT 9999 SCT012 BKN040 01/M01 Q1004 R33/2///95 NOSIG=
EVRA 191520Z 02006KT 9999 FEW022 OVC025 M01/M03 Q1003 R36/590295 NOSIG=
EYVI 191520Z 05005KT 1500 SN OVC022 M02/M03 Q0998 R01/6/0294 NOSIG=
HECA 191530Z 27013KT 9999 FEW025 BKN070 16/05 Q1019 NOSIG=
HEGN 191400Z 36020KT 7000 NSC 19/02 Q1017 NOSIG=
HESH 191400Z 04009KT CAVOK 19/02 Q1015 NOSIG=
LBBG 191500Z 28006KT CAVOK 08/M01 Q1012 NOSIG=
LBSF 191500Z 15004KT CAVOK 08/M04 Q1012 NOSIG=
LCLK 191500Z 01007KT 9999 FEW025 13/01 Q1013 NOSIG=
LCPH 191500Z 32010KT 9999 FEW035 12/04 Q1014=
LEBL 191500Z 04003KT 340V080 CAVOK 13/04 Q1017 NOSIG=
LGTS 191520Z VRB03KT CAVOK 10/M01 Q1014 NOSIG=
LHBP 191500Z 21005KT 170V230 9999 SCT041 BKN130 04/03 Q1009 TEMPO 29010KT -SHRA=
LIRA 191520Z 18006KT 150V210 9000 -RA SCT010 BKN025 11/10 Q1012=
LKPR 191517Z 24011KT 9999 -SHSNRA FEW015 BKN023 BKN035 01/M00 Q1007 R24/29//95 R30/29//95 RMK REG QNH 1004=
LLBG 191520Z 27016KT 9999 SCT045 14/06 Q1014 NOSIG=
LOWW 191520Z 32009KT 9999 FEW030 04/00 Q1010 NOSIG=
LTAC 191450Z 20006KT 170V230 9999 FEW040 01/M05 Q1015 NOSIG=
LTAI 191450Z 33008KT CAVOK 13/M07 Q1014 BECMG 34020G30KT=
LTAJ 191450Z 31008KT 260V350 9999 FEW040 SCT100 07/M00 Q1007 NOSIG=
LTAY 191450Z 09005KT CAVOK 02/M04 Q1017=
LTAZ 191450Z 22004KT 9999 BKN035 01/M03 Q1016=
LTBA 191450Z 19015KT CAVOK 09/01 Q1017 NOSIG=
LTBR 191450Z 05006KT CAVOK 05/M00 Q1017 NOSIG=
LTBS 191450Z 31008KT CAVOK 12/M07 Q1015 NOSIG=
LTBU 191450Z 14009KT CAVOK 08/03 Q1015=
LTCE 191450Z 08010KT 9999 -SN BKN035 BKN070 00/M01 Q1008 NOSIG=
LTFE 191450Z VRB02KT CAVOK 12/M07 Q1018 NOSIG=
LTFH 191511Z VRB01KT 9999 -SHRA BKN033 BKN090 08/01 Q1017 NOSIG RMK RWY31 17004KT=
LUKK 191500Z 09005KT CAVOK M00/M03 Q1008 R26/820494 NOSIG=
LYBE 191500Z 03003KT 020V100 8000 3000NW NSC 08/03 Q1009 TEMPO 3000 BR=
OIII 191500Z 14008KT 8000 NSC 09/M08 Q1014 A2997=
OIMM 191500Z 16006KT CAVOK 11/M11 Q1016 A3003=
OLBA 191500Z VRB02KT 9999 SCT026 13/01 Q1014 NOSIG=
OMDB 191500Z 02007KT 350V060 CAVOK 22/14 Q1017 NOSIG=
OSDI 191500Z 27020KT 9999 FEW03008/M05 Q1010=
UAAA 191500Z 34001MPS 0500 R05L/1400U R05R/2000N FZFG BKN100 BKN200 M11/M12 Q1025 R05L/91//50 R05R/91//42 NOSIG=
UAAH 191130Z 07005MPS CAVOK M11/M13 Q1028 R05/720255 NOSIG RMK QFE733/0978=
UACC 191500Z 08003MPS CAVOK M25/M28 Q1031 R04/9///50 NOSIG RMK QFE741/0988=
UACK 191500Z 09002MPS 9999 OVC004 M20/M22 Q1034 R20/450445 NOSIG RMK QBB120 QFE751/1002=
UACP 191130Z 08003MPS 9999 BKN014 M19/M21 Q1036 R23/4/1047 NOSIG RMK QFE764/1019=
UADD 191500Z 25004MPS 9999 NSC M04/M08 Q1022 R13/790342 NOSIG RMK QFE709/0946=
UAII 191500Z 13004MPS 2000 BR FU NSC 01/M02 Q1021 R10/0///70 TEMPO 1500 RMK QFE731/0974=
UAKD 191500Z 07004MPS 7000 BKN050 OVC100 M15/M15 Q1027 R04/950335 NOSIG RMK QFE737/0983=
UAKK 191500Z 08004MPS CAVOK M20/M23 Q1029 R05/950550 NOSIG RMK QFE724/0965=
UAOO 191500Z 07004MPS 9999 FEW046 M07/M10 Q1023 R05/CLRD70 NOSIG RMK QFE756/1008=
UARR 191500Z 07006MPS 9999 OVC020 M14/M17 Q1028 R04/810160 NOSIG RMK QFE767/1023=
UASK 191500Z 36001MPS 0050 R30/0300 FZFG BKN003 M21/M22 Q1033 R30/410150 NOSIG RMK QBB100 QFE749/0999=
UASP 191500Z 07004MPS 5000 -SN BKN019 OVC120 M18/M20 Q1036 R21/720345 NOSIG RMK QFE766/1021=
UASS 191030Z 10002MPS CAVOK M14/M18 Q1033 NOSIG RMK QFE756/1008=
UATE 191500Z 04004MPS 9999 OVC018 02/M01 Q1011 R12/0///70 NOSIG RMK QFE756/1008=
UATG 191500Z 08009MPS 5000 BR BKN007 M06/M07 Q1019 R14/82//60 NOSIG RMK QFE766/1022=
UATT 191500Z 09003MPS 9999 FEW044 M18/M20 Q1029 R13/0///60 NOSIG RMK QFE752/1002=
UAUU 191500Z 03003MPS 4900 BR NSC M23/M25 Q1034 R33/810058 NOSIG RMK QFE759/1013=
UBBB 191500Z 34002KT CAVOK 04/01 Q1011 R88/CLRD// NOSIG=
UBBG 191500Z 19004KT 9999 SCT100 08/04 Q1008 R30/CLRD// NOSIG=
UBBL 191500Z 00000KT 6000 NSC 06/03 Q1010 R33/CLRD// NOSIG RMK MT OP=
UBBN 191500Z 02010KT 9999 SCT050 BKN100 07/M01 Q1005 R14R/CLRD// NOSIG RMK MT OP QFE680=
UBBQ 191500Z 15001KT 9999 NSC 05/03 Q1009 R16/CLRD// NOSIG RMK MT OP=
UBBY 191500Z 13008KT 9999 SCT100 08/05 Q1011 R33/////// NOSIG RMK MT OP=
UBEE 191500Z 18005KT CAVOK 09/05 Q1009 R30/CLRD// NOSIG=
UCFL 191500Z 02003MPS 9999 FEW030 BKN100 00/M05 Q1024 R07/CLRD70 RMK V/G/CH/Z=
UCFM 191500Z 12005MPS 2300 BR FU NSC M01/M06 Q1024 R08/CLRD70 NOSIG=
UCFO 191500Z 12001MPS 2300 BR NSC 01/M01 Q1026 R12/CLRD70 NOSIG=
UDSG 191500Z 00000KT 6000 BKN043 01/M01 Q1009 R02/CLRD70 NOSIG=
UDYZ 191500Z 09008KT 9999 BKN046 09/01 Q1009 R09/010070 NOSIG=
UEEE 191500Z 33002MPS 5000 BR NSC M41/M45 Q1030 R23L/490150 NOSIG RMK QFE763=
UGKO 191500Z 29003KT 8000 -RA SCT017 OVC039 07/07 Q1016 R07/29//50 NOSIG=
UGSB 191500Z 20007KT 8000 -RA SCT017 BKN033 08/07 Q1019 R13/29//55 NOSIG=
UGTB 191500Z 31022G32KT CAVOK 08/03 Q1011 R31L/CLRD70 NOSIG=
UHHH 191500Z 04005MPS 5000 -SN BKN027 M20/M23 Q1016 R23L/090060 NOSIG RMK QFE755/1007=
UHMA 191500Z 36006MPS CAVOK M30/M34 Q1028 RMK END R01/35003MPS QFE767/1023=
UHMM 191500Z 00000MPS 9999 NSC M37/M40 Q1020 RMK QFE750=
UHPP 191500Z 06002MPS 9999 BKN040 M10/M18 Q1012 R34L/CLRD70 NOSIG RMK QFE755/1007=
UHSS 191500Z 07002MPS 6000 NSC M22/M25 Q1018 R01/190065 NOSIG RMK QFE762/1017=
UHWW 191500Z 00000MPS 9999 SCT013 BKN023CB M04/M06 Q1017 R07R/420160 NOSIG RMK QFE762=
UIAA 191500Z 23002MPS 210V290 9999 NSC M27/M35 Q1019 R29/450155 NOSIG RMK QFE706/0941=
UIBB 191500Z 00000MPS 9999 NSC M36/M40 Q1027 R30/851040 NOSIG RMK QFE727/0969=
UIII 191500Z 05002MPS 020V080 CAVOK M28/M31 Q1027 R30/810560 NOSIG RMK QFE725/0966=
UIUU 191500Z 00000MPS 9999 NSC M29/M33 Q1026 R26/821555 NOSIG RMK QFE725/0966=
UKBB 191500Z 21006MPS 9999 FEW020 BKN040 M01/M01 Q1003 R18L/851040 R18R///99// NOSIG=
UKDD 191500Z 20003MPS 9999 -SN OVC008 M03/M04 Q1008 R26/720245 NOSIG=
UKDE 191500Z 15002MPS 120V180 9000 BKN013 M02/M02 Q1010 R02/690340 NOSIG=
UKDR 191500Z 21003MPS 9999 OVC006 M01/M02 Q1008 R36/593020 NOSIG=
UKHH 191515Z 14004MPS 2200 -SHSN BKN007 BKN020CB M06/M07 Q1009 R07/450540 NOSIG=
UKKK 191500Z 22005MPS 9000 -SN SCT009 OVC033 M00/M01 Q1003 R26/810345 NOSIG=
UKKM 191500Z 19004MPS 9999 BKN012 00/M01 Q1002 R15/590342 NOSIG=
UKLI 191500Z 26006MPS 9999 BKN046 04/M04 Q1005 R28/090070 NOSIG=
UKLL 191500Z 29008MPS 9999 BKN037 02/M05 Q1005 R31/190070 NOSIG=
UKLN 191500Z 29002MPS 260V320 CAVOK 05/M05 Q1006 NOSIG=
UKLR 191500Z 26012G19MPS 9999 SCT026 SCT026CB 01/M03 Q1001 R29/495027 NOSIG=
UKLU 191500Z 13001MPS 9999 BKN043 BKN100 05/M00 Q1007 R10/591036 NOSIG=
UKOH 191500Z 16002MPS 9999 SCT033 BKN100 00/M02 Q1010 R03/190060 NOSIG=
UKON 191500Z 18001MPS 4800 BR NSC 00/M01 Q1009 NOSIG=
UKOO 191500Z 00000MPS CAVOK M00/M02 Q1010 R16/290054 NOSIG=
UKWW 191500Z 25005G10MPS 9999 BKN023CB 03/M04 Q1004 R13/190155 NOSIG=
ULAA 191500Z 16004MPS 110V210 3500 -SHSN OVC006CB M07/M08 Q1020 R08/490536 NOSIG RMK QBB190 QFE764/1018=
ULLI 191500Z 09005MPS 9999 BKN009 M03/M04 Q1007 R88/420342 NOSIG=
ULMM 191500Z 18002MPS 9999 FEW030 M15/M17 Q1010 R13/490136 NOSIG RMK QFE751=
ULOO 191500Z (AUTO) 07003MPS 030V110 9000 // ///010/// M02/M04 Q1004 RMK QFE749=
ULPB 191500Z VRB01MPS 9999 SCT012 BKN046 M05/M08 Q1012 R19/890240 NOSIG RMK QFE755/1007=
ULWC 191500Z 12005MPS 9999 SCT033 M08/M13 Q1015 R21/490139 NOSIG RMK QFE751/1002=
UMBB 191330Z 29009G14MPS 1100 R29/1100 SHSN BLSN OVC012CB M00/M01 Q0997 R29/690732 NOSIG=
UMGG 191500Z 12006G09MPS 9999 -SHSN OVC009CB M00/M02 Q1002 R10/510350 NOSIG=
UMII 191500Z 14005MPS 9000 OVC009 M02/M03 Q1001 R23/920245 TEMPO 2000 SN BKN005=
UMKK 191500Z 00000MPS 7000 BKN021 M00/M01 Q1002 R24/29//60 NOSIG RMK QFE751/1001=
UMMG 191500Z 33003G06MPS 4400 -SN BR OVC007 M02/M02 Q0997 NOSIG=
UMMM 191400Z 10006G09MPS //// -SN BLSN OVC009 M01/M03 Q0997 RMK QFE728=
UMMS 191500Z 13005MPS 7000 -SN OVC008 M01/M03 Q0998 R13/550440 NOSIG=
UMOO 191300Z 11005MPS 6000 BKN005 OVC014CB M01/M02 Q1000 R13/890221 NOSIG RMK QBB150=
UNAA 191500Z 36005MPS 9999 SCT033CB M21/M29 Q1035 R02/490045 NOSIG RMK QFE753=
UNBB 191500Z 36002MPS 9999 -SN NSC M15/M17 Q1035 R24/490148 NOSIG RMK QFE754=
UNEE 191500Z 35004MPS CAVOK M28/M31 Q1037 R23/891032 NOSIG RMK QFE755=
UNKL 191500Z 31002MPS CAVOK M33/M37 Q1036 R29/810060 NOSIG RMK QFE751=
UNNT 191500Z 02003MPS CAVOK M27/M30 Q1041 R07/820155 R34/820155 NOSIG RMK QFE770/1027=
UNOO 191500Z 00000MPS 4900 -SN FU BKN010 M19/M22 Q1039 R07/420545 NOSIG RMK QFE770=
UNTT 191500Z 07002MPS CAVOK M31/M35 Q1040 NOSIG RMK QFE765=
URKA 191500Z 30007MPS 9000 -RA OVC009 04/03 Q1010 R22/290160 TEMPO 0500 -SHRA FG BKN002 BKN020CB RMK QFE753/1004=
URKK 191500Z 05003MPS 9999 BKN026 01/00 Q1010 R05R/290060 TEMPO 2000 FZRA BKN007 RMK QFE754=
URMG 191500Z 26002MPS 230V290 9000 -FZDZ OVC007 M01/M01 Q1013 R26/190060 NOSIG RMK MT OBSC OBST OBSC QFE744/0993=
URML 191500Z 34006MPS 9999 OVC014 02/M00 Q1012 R32/01//70 TEMPO 3100 BR OVC007 RMK QFE758/1011=
URMM 191500Z 09004MPS 8000 OVC004 M04/M05 Q1011 R12/790145 NOSIG RMK MT OBSC QFE731/0974=
URMN 191500Z 08001MPS 0300 R24/0350 FZFG VV002 M04/M04 Q1010 R24/210155 NOSIG RMK QBB060 MT OBSC OBST OBSC QFE721=
URMO 191500Z 09002MPS 1900 1200N BR OVC004 M02/M02 Q1010 R09/190160 NOSIG RMK MT OBSC QFE714/0953=
URMT 191500Z 15003MPS 9999 SCT030 M04/M05 Q1010 R07/810255 NOSIG RMK QFE717=
URSS 191500Z 16004MPS 9000 -SHRA BKN012 OVC036CB 08/06 Q1015 WS R06 R06/250250 R02/////// NOSIG RMK R02/15004G07MPS MT OBSC QFE760=
URWA 191500Z 07007MPS 4900 -SG BR OVC007 M04/M05 Q1016 R09/010060 NOSIG RMK OBST OBSC QFE764/1019=
URWI 191500Z (AUTO) 07005MPS 9999 // NCD M07/M09 Q1014=
URWW 191500Z 10010MPS 6000 -SN BLSN BKN006 M11/M12 Q1017 R06/420260 NOSIG RMK OBST OBSC=
USCC 191500Z 34001MPS 6000 SCT020 M20/M22 Q1034 R27/420255 TEMPO 1100 BR RMK QFE755=
USCM 191500Z 35001MPS 5000 -SN OVC005 M21/M23 Q1031 R18/090060 TEMPO 1000 SN VV001 RMK QFE735=
USHH 191500Z 05003MPS 9000 -SN BKN042 M20/M22 Q1042 R06/450547 TEMPO 2000 SN BKN004 RMK QFE778=
USNN 191500Z 12002MPS 2400 BR NSC M38/M41 Q1048 R03/32//65 NOSIG RMK QFE782=
USPP 191500Z 00000MPS 4700 BR NSC M21/M23 Q1036 R03/190055 NOSIG RMK QFE766=
USRR 191500Z 06003MPS 7000 FEW011 M33/M37 Q1046 R07/31//55 NOSIG RMK QFE780=
USSS 191500Z 05002MPS 360V080 CAVOK M22/M24 Q1035 R26R/190042 NOSIG RMK QFE755/1007=
USTR 191500Z 07002MPS 3200 HZ FEW008 OVC018 M19/M22 Q1038 R30/350050 TEMPO 1200 HZ BKN005 RMK QFE768/1025=
UTAA 191500Z 22003KT 190V280 9000 NSC 11/M02 Q1012 R88/70D NOSIG=
UTAK 191500Z 10004KT CAVOK 09/M01 Q1010 R16R/CLRD70 NOSIG=
UTAM 191500Z 15006KT 6000 SKC 14/M04 Q1015 NOSIG=
UTAT 191500Z 11008KT 5000 BR FEW200 03/M03 Q1015 R08/CLRD70 NOSIG=
UTAV 191500Z 14008KT 7000 SKC 12/M03 Q1017 NOSIG=
UTDD 191500Z VRB01MPS 7000 NSC 08/M01 Q1024 R09/CLRD// NOSIG RMK QFE699/0932=
UTDK 191500Z 35003MPS 7000 NSC 06/03 Q1024 R01/09//70 RMK QFE710/0947=
UTDL 191500Z 07008MPS 2600 BR NSC 03/00 Q1025 R08/CLRD// NOSIG RMK QFE730/0973=
UTDT 191500Z 09002MPS 4300 BR FEW110 04/03 Q1023 35////// RMK QFE727/0970=
UTFA 191500Z 19005KT 0650 FG NSC 01/M01 Q1028 R88/09//70=
UTFF 191500Z 19004KT 0700 MIFG NSC 00/M01 Q1027 R18/CLRD70=
UTNN 191500Z 05006KT 8000 NSC 00/M02 Q1016 R33/CLRD60 NOSIG=
UTNU 191500Z 09006KT 3600 HZ NSC 05/M04 Q1016 R13/CLRD70 NOSIG=
UTSA 191500Z 13008KT 9999 NSC 07/M06 Q1018 R07/CLRD70 NOSIG=
UTSB 191500Z VRB02KT CAVOK 09/M06 Q1017 R01/CLRD70 NOSIG=
UTSK 191500Z 12006KT CAVOK 11/M08 Q1019 R16/CLRD70=
UTSS 191500Z 00000KT 6000 NSC 03/M03 Q1020 R09/70D NOSIG=
UTST 191500Z 12006KT 7000 NSC 07/M00 Q1022 R88/CLRD70 NOSIG=
UTTT 191500Z 08006KT CAVOK 06/M02 Q1021 R08R/CLRD70 NOSIG=
UUBC 191500Z 11006MPS 9999 OVC034 M07/M11 Q1010 R13/850145 NOSIG RMK QFE739/0986=
UUBP 191500Z 12005MPS 4000 -SHSN BR BKN006 OVC020CB M06/M08 Q1005 R16/450240 NOSIG RMK QFE736/0981=
UUBW 191500Z 12007MPS 9999 SCT036 M09/M15 Q1016 R30/410340 NOSIG=
UUDD 191500Z 13008MPS 9999 SCT032 M09/M17 Q1014 R88/420195 NOSIG=
UUDL 191500Z 12004MPS CAVOK M11/M19 Q1020 R23/390147 NOSIG RMK QFE756=
UUEE 191500Z 12009MPS 9999 BKN030 M08/M14 Q1013 R06L/450251 R06R/450251 NOSIG=
UUMO 191500Z 13006G11MPS 9999 OVC030 M09/M15 Q1014 R08/490255 NOSIG RMK QFE746/0994=
UUOB 191500Z 13006MPS 4200 -SN BR BKN004 M06/M06 Q1008 R11/090060 NOSIG RMK QBB120=
UUOK 191500Z 15008MPS 9000 -SN OVC011 M06/M07 Q1008 R12/CLRD65 NOSIG RMK QFE739/0985=
UUOO 191500Z 11006MPS 9999 OVC015 M06/M12 Q1013 R12/090060 NOSIG RMK QFE746=
UUWW 191500Z 12007MPS 9999 BKN033 M09/M15 Q1013 R06/420245 NOSIG=
UUYY 191500Z 16002MPS CAVOK M17/M19 Q1033 R19/420258 NOSIG RMK QFE766/1021=
UWGG 191500Z 13004MPS CAVOK M14/M19 Q1025 R18R/420050 NOSIG RMK QFE762=
UWKD 191500Z 10004MPS CAVOK M16/M18 Q1029 R11/810055 NOSIG RMK QFE762/1016=
UWKE 191500Z 09006MPS CAVOK M14/M17 Q1030 R03/490545 NOSIG RMK QFE756/1007=
UWKS 191500Z 13002MPS CAVOK M18/M20 Q1028 R06/920350 NOSIG RMK QFE755=
UWLW 191500Z 00000MPS 5000 BR NSC M21/M23 Q1029 R20/820550 TEMPO 1000 BR RMK QFE766=
UWOO 191500Z 07002MPS CAVOK M20/M23 Q1031 R08/810257 NOSIG RMK QFE762/1017=
UWOR 191500Z 04003MPS 9999 BKN010 M20/M24 Q1031 R25/390045 NOSIG RMK QFE749/0999=
UWSS 191500Z 09005MPS 9999 -SN BKN012 M17/M19 Q1024 R12/010052 NOSIG RMK QFE756=
UWUU 191500Z 23003MPS CAVOK M20/M22 Q1033 R14R/2///46 NOSIG RMK QFE764/1019=
UWWW 191500Z 10003MPS 020V110 9999 SCT006 M19/M21 Q1029 R15/420142 NOSIG RMK QFE760/1013=
ZMUB 191530Z VRB02MPS CAVOK M30/M34 Q1016 NOSIG RMK QFE655.0 70=